createdAt,value
2022-09-06T00:00:45.323Z,3.55
2022-09-06T00:03:19.215Z,3.40
2022-09-06T00:05:47.652Z,3.30
2022-09-06T00:08:21.585Z,3.05
2022-09-06T00:11:01.315Z,3.60
2022-09-06T00:13:35.433Z,4.28
2022-09-06T00:16:11.599Z,5.80
2022-09-06T00:18:40.178Z,7.25
2022-09-06T00:21:19.316Z,5.78
2022-09-06T00:23:53.667Z,9.43
2022-09-06T00:26:22.827Z,19.00
2022-09-06T00:28:51.350Z,19.40
2022-09-06T00:31:21.415Z,17.33
2022-09-06T00:33:50.482Z,20.02
2022-09-06T00:36:19.272Z,15.40
2022-09-06T00:38:47.676Z,13.85
2022-09-06T00:41:16.726Z,13.15
2022-09-06T00:43:45.206Z,8.45
2022-09-06T00:46:25.803Z,5.05
2022-09-06T00:48:56.532Z,4.85
2022-09-06T00:51:31.483Z,3.88
2022-09-06T00:54:02.800Z,3.95
2022-09-06T00:56:32.481Z,3.75
2022-09-06T00:59:01.222Z,4.25
2022-09-06T01:01:29.759Z,3.72
2022-09-06T01:04:03.247Z,3.60
2022-09-06T01:06:38.095Z,4.20
2022-09-06T01:09:18.832Z,3.75
2022-09-06T01:11:47.223Z,3.80
2022-09-06T01:14:37.480Z,4.50
2022-09-06T01:17:05.924Z,4.68
2022-09-06T01:19:50.138Z,3.92
2022-09-06T01:22:18.590Z,4.05
2022-09-06T01:24:54.072Z,4.20
2022-09-06T01:27:28.764Z,4.25
2022-09-06T01:30:10.614Z,4.38
2022-09-06T01:32:47.592Z,4.28
2022-09-06T01:37:47.111Z,4.32
2022-09-06T01:40:19.694Z,4.60
2022-09-06T01:42:49.096Z,4.55
2022-09-06T01:45:19.574Z,4.75
2022-09-06T01:48:00.830Z,4.80
2022-09-06T01:50:38.985Z,4.95
2022-09-06T01:53:22.796Z,4.60
2022-09-06T01:55:57.131Z,6.13
2022-09-06T01:58:45.603Z,7.05
2022-09-06T02:01:23.440Z,6.45
2022-09-06T02:04:00.586Z,5.22
2022-09-06T02:06:38.774Z,5.13
2022-09-06T02:09:09.383Z,5.93
2022-09-06T02:11:40.450Z,5.32
2022-09-06T02:14:21.927Z,3.88
2022-09-06T02:16:51.638Z,5.32
2022-09-06T02:19:28.381Z,4.82
2022-09-06T02:22:04.067Z,5.10
2022-09-06T02:24:33.669Z,4.60
2022-09-06T02:27:02.390Z,6.57
2022-09-06T02:29:41.348Z,5.18
2022-09-06T02:32:23.533Z,4.53
2022-09-06T02:34:53.329Z,4.93
2022-09-06T02:37:23.544Z,5.30
2022-09-06T02:39:52.382Z,5.82
2022-09-06T02:42:21.001Z,6.30
2022-09-06T02:44:54.416Z,6.47
2022-09-06T02:47:22.926Z,7.32
2022-09-06T02:49:51.462Z,5.55
2022-09-06T02:52:19.987Z,6.78
2022-09-06T02:54:48.704Z,5.68
2022-09-06T02:57:17.144Z,5.57
2022-09-06T02:59:51.887Z,5.80
2022-09-06T03:02:20.391Z,6.70
2022-09-06T03:04:48.873Z,6.47
2022-09-06T03:07:27.000Z,6.55
2022-09-06T03:09:57.310Z,6.53
2022-09-06T03:12:25.801Z,6.32
2022-09-06T03:17:31.712Z,5.95
2022-09-06T03:20:06.119Z,6.13
2022-09-06T03:22:39.997Z,6.10
2022-09-06T03:25:18.023Z,6.00
2022-09-06T03:27:56.078Z,5.82
2022-09-06T03:30:24.562Z,12.63
2022-09-06T03:32:53.285Z,10.90
2022-09-06T03:35:21.751Z,6.88
2022-09-06T03:37:50.255Z,5.70
2022-09-06T03:40:24.442Z,6.30
2022-09-06T03:42:52.915Z,13.40
2022-09-06T03:45:25.851Z,12.45
2022-09-06T03:48:03.830Z,13.95
2022-09-06T03:50:43.706Z,21.67
2022-09-06T03:53:14.373Z,23.75
2022-09-06T03:55:46.679Z,23.00
2022-09-06T03:58:16.208Z,24.42
2022-09-06T04:01:01.985Z,23.58
2022-09-06T04:03:30.499Z,15.77
2022-09-06T04:05:58.969Z,13.77
2022-09-06T04:08:27.773Z,11.00
2022-09-06T04:10:56.978Z,11.82
2022-09-06T04:13:30.778Z,9.00
2022-09-06T04:15:59.286Z,8.32
2022-09-06T04:18:38.963Z,7.82
2022-09-06T04:21:07.511Z,5.90
2022-09-06T04:23:39.814Z,6.93
2022-09-06T04:26:13.066Z,7.15
2022-09-06T04:28:41.554Z,7.90
2022-09-06T04:31:09.940Z,7.78
2022-09-06T04:33:39.034Z,9.68
2022-09-06T04:36:13.093Z,13.20
2022-09-06T04:38:42.638Z,10.05
2022-09-06T04:41:21.517Z,9.73
2022-09-06T04:43:50.019Z,10.13
2022-09-06T04:46:21.974Z,22.80
2022-09-06T04:48:51.052Z,11.60
2022-09-06T04:51:19.662Z,11.80
2022-09-06T04:53:48.423Z,9.40
2022-09-06T04:56:22.375Z,11.10
2022-09-06T04:58:51.526Z,9.27
2022-09-06T05:01:20.836Z,11.02
2022-09-06T05:03:50.869Z,8.85
2022-09-06T05:06:26.485Z,7.97
2022-09-06T05:08:54.978Z,9.65
2022-09-06T05:11:23.597Z,12.63
2022-09-06T05:13:52.052Z,11.90
2022-09-06T05:16:20.532Z,12.25
2022-09-06T05:18:49.060Z,11.40
2022-09-06T05:21:23.281Z,14.68
2022-09-06T05:23:55.398Z,14.80
2022-09-06T05:26:26.408Z,22.10
2022-09-06T05:28:54.912Z,25.42
2022-09-06T05:31:25.769Z,25.38
2022-09-06T05:33:54.794Z,23.90
2022-09-06T05:36:23.969Z,22.33
2022-09-06T05:39:00.525Z,20.40
2022-09-06T05:41:29.058Z,19.63
2022-09-06T05:43:57.431Z,18.55
2022-09-06T05:46:26.996Z,20.58
2022-09-06T05:48:56.074Z,19.77
2022-09-06T05:51:24.731Z,28.23
2022-09-06T05:53:53.406Z,26.63
2022-09-06T05:56:22.750Z,23.75
2022-09-06T05:58:51.367Z,23.40
2022-09-06T06:01:21.338Z,26.70
2022-09-06T06:04:02.560Z,27.70
2022-09-06T06:06:31.938Z,28.00
2022-09-06T06:09:04.847Z,25.92
2022-09-06T06:11:35.060Z,24.83
2022-09-06T06:14:03.874Z,19.48
2022-09-06T06:16:32.459Z,17.27
2022-09-06T06:19:01.139Z,18.42
2022-09-06T06:21:30.687Z,16.98
2022-09-06T06:24:00.602Z,16.00
2022-09-06T06:26:34.960Z,15.88
2022-09-06T06:29:12.953Z,15.68
2022-09-06T06:31:51.586Z,15.98
2022-09-06T06:34:22.297Z,16.25
2022-09-06T06:36:50.823Z,16.23
2022-09-06T06:39:19.441Z,15.43
2022-09-06T06:41:53.482Z,16.08
2022-09-06T06:44:32.512Z,15.85
2022-09-06T06:47:06.219Z,18.33
2022-09-06T06:49:34.756Z,20.35
2022-09-06T06:52:03.355Z,24.98
2022-09-06T06:54:32.042Z,23.40
2022-09-06T06:57:00.563Z,21.38
2022-09-06T06:59:29.057Z,25.63
2022-09-06T07:01:57.653Z,26.50
2022-09-06T07:04:37.928Z,23.00
2022-09-06T07:12:43.455Z,20.30
2022-09-06T07:15:11.982Z,21.45
2022-09-06T07:17:40.514Z,22.13
2022-09-06T07:20:12.902Z,22.13
2022-09-06T07:22:42.394Z,21.20
2022-09-06T07:25:14.309Z,22.13
2022-09-06T07:30:22.662Z,21.10
2022-09-06T07:32:59.410Z,21.15
2022-09-06T07:35:38.134Z,19.52
2022-09-06T07:38:17.304Z,20.17
2022-09-06T07:40:53.164Z,19.83
2022-09-06T07:43:32.437Z,23.08
2022-09-06T07:46:00.914Z,20.88
2022-09-06T07:48:30.667Z,22.75
2022-09-06T07:51:05.080Z,21.50
2022-09-06T07:53:34.942Z,21.80
2022-09-06T07:56:04.942Z,22.27
2022-09-06T07:58:42.713Z,21.13
2022-09-06T08:01:31.935Z,43.58
2022-09-06T08:04:01.538Z,25.13
2022-09-06T08:09:20.520Z,24.67
2022-09-06T08:11:49.247Z,24.10
2022-09-06T08:14:17.839Z,27.20
2022-09-06T08:16:46.385Z,24.20
2022-09-06T08:19:25.111Z,38.78
2022-09-06T08:21:56.638Z,25.48
2022-09-06T08:24:25.237Z,24.33
2022-09-06T08:26:53.752Z,23.35
2022-09-06T08:29:22.235Z,21.17
2022-09-06T08:31:50.778Z,21.30
2022-09-06T08:34:19.412Z,21.85
2022-09-06T08:36:47.823Z,22.08
2022-09-06T08:39:17.248Z,21.88
2022-09-06T08:41:52.377Z,20.98
2022-09-06T08:47:16.975Z,22.80
2022-09-06T08:49:50.158Z,23.48
2022-09-06T08:52:18.981Z,22.60
2022-09-06T08:54:47.471Z,23.25
2022-09-06T08:57:38.183Z,24.63
2022-09-06T09:00:20.257Z,30.55
2022-09-06T09:06:03.916Z,29.58
2022-09-06T09:08:54.573Z,28.17
2022-09-06T09:11:23.806Z,28.50
2022-09-06T09:14:08.686Z,26.52
2022-09-06T09:16:37.238Z,27.75
2022-09-06T09:19:06.478Z,27.42
2022-09-06T09:21:37.041Z,26.55
2022-09-06T09:24:06.824Z,25.10
2022-09-06T09:26:39.440Z,24.05
2022-09-06T09:29:14.754Z,23.65
2022-09-06T09:31:53.470Z,21.98
2022-09-06T09:34:30.365Z,22.77
2022-09-06T09:40:06.396Z,22.70
2022-09-06T09:42:39.686Z,23.85
2022-09-06T09:45:20.813Z,27.40
2022-09-06T09:48:16.117Z,30.85
2022-09-06T09:50:44.632Z,27.05
2022-09-06T09:53:14.820Z,33.40
2022-09-06T09:55:44.552Z,36.28
2022-09-06T10:01:34.109Z,40.55
2022-09-06T10:09:41.149Z,41.63
2022-09-06T10:12:14.040Z,45.90
2022-09-06T10:14:44.566Z,46.22
2022-09-06T10:17:20.075Z,47.47
2022-09-06T10:19:53.529Z,51.92
2022-09-06T10:22:40.631Z,58.20
2022-09-06T10:25:20.495Z,45.42
2022-09-06T10:28:11.477Z,47.13
2022-09-06T10:33:59.052Z,60.23
2022-09-06T10:36:35.153Z,54.95
2022-09-06T10:39:06.731Z,52.77
2022-09-06T10:41:43.149Z,48.15
2022-09-06T10:44:17.315Z,50.35
2022-09-06T10:46:47.316Z,51.13
2022-09-06T10:49:19.946Z,54.15
2022-09-06T10:52:08.847Z,52.83
2022-09-06T10:54:40.823Z,57.42
2022-09-06T11:00:15.012Z,67.07
2022-09-06T11:06:02.912Z,49.95
2022-09-06T11:08:51.292Z,54.67
2022-09-06T11:11:36.672Z,56.08
2022-09-06T11:14:16.034Z,54.90
2022-09-06T11:16:55.964Z,55.33
2022-09-06T11:19:27.661Z,58.08
2022-09-06T11:22:14.897Z,56.13
2022-09-06T11:28:01.458Z,86.40
2022-09-06T11:30:30.880Z,57.72
2022-09-06T11:33:11.631Z,76.75
2022-09-06T11:35:41.562Z,75.50
2022-09-06T11:38:25.349Z,77.30
2022-09-06T11:41:01.422Z,68.30
2022-09-06T11:43:42.279Z,75.90
2022-09-06T11:49:47.700Z,51.38
2022-09-06T11:55:39.971Z,64.57
2022-09-06T11:58:20.774Z,60.22
2022-09-06T12:01:07.923Z,59.92
2022-09-06T12:04:06.211Z,78.10
2022-09-06T12:06:36.174Z,77.78
2022-09-06T12:12:42.487Z,45.25
2022-09-06T12:15:24.798Z,56.03
2022-09-06T12:17:59.791Z,46.95
2022-09-06T12:20:57.438Z,48.38
2022-09-06T12:23:36.048Z,57.85
2022-09-06T12:26:34.457Z,65.10
2022-09-06T12:29:12.835Z,66.57
2022-09-06T12:31:44.071Z,39.75
2022-09-06T12:34:21.120Z,37.75
2022-09-06T12:39:21.573Z,37.13
2022-09-06T12:41:51.791Z,37.00
2022-09-06T12:44:24.986Z,36.85
2022-09-06T12:46:53.627Z,31.60
2022-09-06T12:49:32.136Z,40.88
2022-09-06T12:52:07.971Z,37.90
2022-09-06T12:54:42.247Z,29.55
2022-09-06T12:57:19.661Z,32.03
2022-09-06T12:59:54.212Z,33.75
2022-09-06T13:02:37.439Z,33.08
2022-09-06T13:05:07.618Z,33.33
2022-09-06T13:07:50.696Z,40.67
2022-09-06T13:10:25.968Z,47.65
2022-09-06T13:12:59.485Z,34.85
2022-09-06T13:15:31.641Z,75.22
2022-09-06T13:18:19.188Z,65.68
2022-09-06T13:21:06.323Z,32.85
2022-09-06T13:23:42.485Z,33.17
2022-09-06T13:26:10.972Z,32.22
2022-09-06T13:28:40.977Z,35.40
2022-09-06T13:31:09.961Z,39.35
2022-09-06T13:33:38.829Z,56.08
2022-09-06T13:36:12.563Z,44.13
2022-09-06T13:38:42.505Z,44.80
2022-09-06T13:41:26.141Z,53.83
2022-09-06T13:44:03.632Z,41.97
2022-09-06T13:46:36.553Z,34.38
2022-09-06T13:49:14.740Z,33.33
2022-09-06T13:51:53.301Z,41.70
2022-09-06T13:54:23.157Z,38.90
2022-09-06T13:56:51.634Z,35.55
2022-09-06T13:59:20.021Z,36.28
2022-09-06T14:01:50.426Z,35.80
2022-09-06T14:04:21.734Z,33.72
2022-09-06T14:06:50.217Z,32.50
2022-09-06T14:09:18.857Z,32.22
2022-09-06T14:11:48.424Z,32.33
2022-09-06T14:14:18.269Z,29.63
2022-09-06T14:16:57.503Z,29.52
2022-09-06T14:19:26.149Z,30.83
2022-09-06T14:21:54.513Z,30.92
2022-09-06T14:24:22.944Z,30.75
2022-09-06T14:26:56.517Z,30.00
2022-09-06T14:29:36.411Z,30.35
2022-09-06T14:32:04.849Z,28.70
2022-09-06T14:34:37.820Z,32.65
2022-09-06T14:37:13.658Z,36.57
2022-09-06T14:39:47.283Z,33.47
2022-09-06T14:42:15.725Z,40.38
2022-09-06T14:44:44.273Z,35.10
2022-09-06T14:47:22.601Z,39.63
2022-09-06T14:49:56.225Z,43.75
2022-09-06T14:52:34.647Z,38.65
2022-09-06T14:55:07.819Z,38.67
2022-09-06T14:57:41.437Z,37.67
2022-09-06T15:00:11.474Z,38.33
2022-09-06T15:02:40.069Z,39.65
2022-09-06T15:05:09.282Z,37.13
2022-09-06T15:07:42.589Z,33.65
2022-09-06T15:10:21.258Z,31.67
2022-09-06T15:12:49.614Z,35.03
2022-09-06T15:15:28.256Z,33.25
2022-09-06T15:17:57.128Z,32.03
2022-09-06T15:20:33.286Z,33.67
2022-09-06T15:23:27.096Z,33.50
2022-09-06T15:26:01.473Z,34.33
2022-09-06T15:28:35.968Z,34.35
2022-09-06T15:31:10.047Z,32.67
2022-09-06T15:33:44.949Z,31.42
2022-09-06T15:36:14.222Z,30.42
2022-09-06T15:38:44.094Z,31.15
2022-09-06T15:41:16.657Z,30.45
2022-09-06T15:43:47.527Z,30.77
2022-09-06T15:46:17.199Z,30.27
2022-09-06T15:48:46.723Z,27.30
2022-09-06T15:51:16.525Z,31.92
2022-09-06T15:53:49.990Z,25.25
2022-09-06T15:56:33.768Z,27.31
2022-09-06T15:59:02.983Z,25.02
2022-09-06T16:01:36.654Z,28.98
2022-09-06T16:04:09.011Z,29.52
2022-09-06T16:06:42.550Z,32.22
2022-09-06T16:09:14.483Z,26.83
2022-09-06T16:11:43.127Z,24.77
2022-09-06T16:14:20.367Z,24.20
2022-09-06T16:19:16.871Z,29.17
2022-09-06T16:21:46.280Z,28.23
2022-09-06T16:24:15.749Z,29.15
2022-09-06T16:26:45.796Z,26.10
2022-09-06T16:29:16.017Z,23.63
2022-09-06T16:31:45.169Z,22.25
2022-09-06T16:34:18.708Z,20.85
2022-09-06T16:36:47.109Z,20.00
2022-09-06T16:39:15.511Z,19.70
2022-09-06T16:41:45.011Z,18.05
2022-09-06T16:44:17.178Z,17.95
2022-09-06T16:46:57.617Z,17.65
2022-09-06T16:49:26.124Z,17.50
2022-09-06T16:51:54.588Z,16.88
2022-09-06T16:54:23.031Z,16.33
2022-09-06T16:56:56.424Z,15.50
2022-09-06T16:59:24.913Z,15.07
2022-09-06T17:01:56.165Z,15.15
2022-09-06T17:04:24.714Z,15.43
2022-09-06T17:06:53.405Z,15.98
2022-09-06T17:09:21.981Z,16.33
2022-09-06T17:11:50.550Z,15.90
2022-09-06T17:14:19.382Z,17.35
2022-09-06T17:17:06.190Z,16.45
2022-09-06T17:19:37.001Z,16.63
2022-09-06T17:22:05.946Z,18.08
2022-09-06T17:24:34.757Z,20.63
2022-09-06T17:27:04.145Z,25.77
2022-09-06T17:29:33.049Z,27.15
2022-09-06T17:32:04.239Z,27.80
2022-09-06T17:34:32.866Z,25.58
2022-09-06T17:37:01.456Z,24.48
2022-09-06T17:39:30.131Z,23.40
2022-09-06T17:41:59.258Z,22.98
2022-09-06T17:44:27.831Z,21.83
2022-09-06T17:47:11.863Z,20.85
2022-09-06T17:49:42.075Z,18.67
2022-09-06T17:52:11.341Z,16.33
2022-09-06T17:54:40.014Z,15.57
2022-09-06T17:57:08.674Z,14.77
2022-09-06T17:59:38.811Z,14.55
2022-09-06T18:02:08.037Z,13.73
2022-09-06T18:04:37.118Z,13.75
2022-09-06T18:07:05.708Z,13.82
2022-09-06T18:09:34.287Z,13.75
2022-09-06T18:12:02.962Z,14.32
2022-09-06T18:14:31.565Z,14.90
2022-09-06T18:17:00.259Z,13.80
2022-09-06T18:19:29.016Z,15.80
2022-09-06T18:21:58.236Z,15.65
2022-09-06T18:24:36.402Z,16.23
2022-09-06T18:27:05.024Z,15.98
2022-09-06T18:29:33.551Z,15.68
2022-09-06T18:32:02.144Z,16.50
2022-09-06T18:34:30.796Z,15.93
2022-09-06T18:36:59.419Z,16.17
2022-09-06T18:39:28.117Z,15.75
2022-09-06T18:42:04.348Z,15.18
2022-09-06T18:44:34.078Z,16.40
2022-09-06T18:47:03.228Z,15.38
2022-09-06T18:49:32.890Z,16.25
2022-09-06T18:52:02.104Z,15.98
2022-09-06T18:54:31.234Z,14.88
2022-09-06T18:57:00.344Z,15.93
2022-09-06T18:59:31.151Z,15.07
2022-09-06T19:01:59.819Z,16.27
2022-09-06T19:04:28.521Z,15.88
2022-09-06T19:07:07.098Z,16.17
2022-09-06T19:09:35.655Z,16.07
2022-09-06T19:12:05.302Z,15.40
2022-09-06T19:14:34.121Z,15.70
2022-09-06T19:17:03.199Z,16.55
2022-09-06T19:19:31.702Z,16.20
2022-09-06T19:22:00.229Z,16.13
2022-09-06T19:24:28.717Z,15.95
2022-09-06T19:26:57.181Z,15.38
2022-09-06T19:29:27.671Z,15.05
2022-09-06T19:31:56.334Z,14.98
2022-09-06T19:34:24.986Z,14.82
2022-09-06T19:36:55.644Z,14.45
2022-09-06T19:39:31.151Z,14.85
2022-09-06T19:42:02.171Z,14.93
2022-09-06T19:44:30.595Z,15.55
2022-09-06T19:47:09.217Z,14.57
2022-09-06T19:49:37.679Z,13.90
2022-09-06T19:52:09.981Z,13.70
2022-09-06T19:54:38.525Z,13.65
2022-09-06T19:57:07.013Z,13.50
2022-09-06T19:59:37.007Z,14.07
2022-09-06T20:02:05.493Z,13.38
2022-09-06T20:04:34.011Z,14.25
2022-09-06T20:07:03.708Z,14.57
2022-09-06T20:09:32.187Z,14.93
2022-09-06T20:12:00.699Z,14.80
2022-09-06T20:14:29.193Z,14.63
2022-09-06T20:17:11.342Z,13.40
2022-09-06T20:19:51.904Z,13.32
2022-09-06T20:22:20.360Z,13.95
2022-09-06T20:24:48.858Z,14.00
2022-09-06T20:27:17.382Z,14.20
2022-09-06T20:29:45.998Z,11.30
2022-09-06T20:32:15.110Z,12.50
2022-09-06T20:34:43.591Z,12.65
2022-09-06T20:37:12.020Z,13.02
2022-09-06T20:39:40.486Z,13.48
2022-09-06T20:42:09.034Z,14.30
2022-09-06T20:44:37.410Z,14.80
2022-09-06T20:47:06.021Z,13.95
2022-09-06T20:49:34.448Z,14.70
2022-09-06T20:52:03.235Z,15.10
2022-09-06T20:54:31.583Z,16.05
2022-09-06T20:56:59.936Z,16.15
2022-09-06T20:59:32.438Z,17.04
2022-09-06T21:02:01.128Z,17.38
2022-09-06T21:04:29.678Z,17.42
2022-09-06T21:06:58.123Z,16.63
2022-09-06T21:09:37.939Z,16.60
2022-09-06T21:12:06.462Z,16.17
2022-09-06T21:14:39.856Z,16.80
2022-09-06T21:17:08.342Z,16.92
2022-09-06T21:19:36.898Z,16.23
2022-09-06T21:22:05.388Z,16.80
2022-09-06T21:24:34.403Z,17.13
2022-09-06T21:27:02.831Z,16.73
2022-09-06T21:29:31.237Z,16.40
2022-09-06T21:31:59.775Z,14.82
2022-09-06T21:34:28.293Z,15.57
2022-09-06T21:36:58.649Z,14.98
2022-09-06T21:39:27.135Z,15.30
2022-09-06T21:41:56.107Z,14.93
2022-09-06T21:44:26.493Z,14.52
2022-09-06T21:46:55.019Z,14.40
2022-09-06T21:49:23.650Z,14.55
2022-09-06T21:51:52.372Z,14.75
2022-09-06T21:54:20.878Z,14.02
2022-09-06T21:56:49.594Z,14.02
2022-09-06T21:59:28.019Z,14.60
2022-09-06T22:01:56.548Z,14.07
2022-09-06T22:04:25.157Z,13.50
2022-09-06T22:06:54.172Z,13.32
2022-09-06T22:09:22.711Z,13.70
2022-09-06T22:12:01.303Z,12.68
2022-09-06T22:14:29.813Z,13.65
2022-09-06T22:16:58.435Z,13.43
2022-09-06T22:19:27.093Z,13.23
2022-09-06T22:21:55.578Z,13.50
2022-09-06T22:24:24.069Z,12.55
2022-09-06T22:26:52.617Z,11.93
2022-09-06T22:29:21.102Z,12.43
2022-09-06T22:31:51.569Z,13.33
2022-09-06T22:34:20.164Z,13.45
2022-09-06T22:36:48.722Z,13.05
2022-09-06T22:39:22.182Z,14.48
2022-09-06T22:41:50.703Z,13.43
2022-09-06T22:44:19.275Z,13.38
2022-09-06T22:46:48.088Z,13.57
2022-09-06T22:49:26.877Z,13.40
2022-09-06T22:51:55.378Z,14.02
2022-09-06T22:54:24.312Z,13.55
2022-09-06T22:56:52.703Z,14.05
2022-09-06T22:59:21.251Z,13.70
2022-09-06T23:01:49.775Z,13.30
2022-09-06T23:04:18.375Z,14.07
2022-09-06T23:06:46.846Z,13.73
2022-09-06T23:09:15.769Z,13.38
2022-09-06T23:11:44.204Z,14.00
2022-09-06T23:14:12.666Z,14.82
2022-09-06T23:16:42.065Z,14.38
2022-09-06T23:19:11.331Z,13.82
2022-09-06T23:21:39.788Z,14.05
2022-09-06T23:24:08.285Z,15.07
2022-09-06T23:26:37.421Z,14.70
2022-09-06T23:29:06.136Z,14.68
2022-09-06T23:31:35.065Z,14.65
2022-09-06T23:34:03.811Z,14.98
2022-09-06T23:36:32.933Z,14.57
2022-09-06T23:39:02.677Z,14.38
2022-09-06T23:41:31.314Z,14.65
2022-09-06T23:43:59.923Z,15.18
2022-09-06T23:46:28.662Z,15.57
2022-09-06T23:48:57.190Z,15.38
2022-09-06T23:51:25.824Z,15.43
2022-09-06T23:53:54.318Z,15.75
2022-09-06T23:56:24.390Z,14.95
2022-09-06T23:58:52.933Z,14.98
